createdAt,value
2024-03-03T00:01:32.721Z,99.90
2024-03-03T00:03:36.772Z,99.90
2024-03-03T00:05:39.000Z,99.90
2024-03-03T00:07:40.626Z,99.90
2024-03-03T00:09:42.341Z,99.90
2024-03-03T00:11:44.101Z,99.90
2024-03-03T00:13:46.019Z,99.90
2024-03-03T00:15:47.720Z,99.90
2024-03-03T00:17:49.422Z,99.90
2024-03-03T00:19:51.104Z,99.90
2024-03-03T00:21:52.896Z,99.90
2024-03-03T00:23:54.603Z,99.90
2024-03-03T00:25:56.271Z,99.90
2024-03-03T00:27:58.053Z,99.90
2024-03-03T00:29:59.790Z,99.90
2024-03-03T00:32:01.671Z,99.90
2024-03-03T00:34:04.665Z,99.90
2024-03-03T00:36:09.396Z,99.90
2024-03-03T00:38:11.253Z,99.90
2024-03-03T00:40:13.386Z,99.90
2024-03-03T00:42:15.223Z,99.90
2024-03-03T00:44:17.519Z,99.90
2024-03-03T00:46:19.271Z,99.90
2024-03-03T00:48:21.024Z,99.90
2024-03-03T00:50:22.786Z,99.90
2024-03-03T00:52:24.518Z,99.90
2024-03-03T00:54:26.245Z,99.90
2024-03-03T00:56:27.953Z,99.90
2024-03-03T00:58:29.639Z,99.90
2024-03-03T01:00:31.526Z,99.90
2024-03-03T01:02:33.220Z,99.90
2024-03-03T01:04:34.893Z,99.90
2024-03-03T01:06:37.339Z,99.90
2024-03-03T01:08:39.009Z,99.90
2024-03-03T01:10:40.720Z,99.90
2024-03-03T01:12:42.426Z,99.90
2024-03-03T01:14:44.169Z,99.90
2024-03-03T01:16:45.828Z,99.90
2024-03-03T01:18:47.738Z,99.90
2024-03-03T01:20:49.397Z,99.90
2024-03-03T01:22:51.082Z,99.90
2024-03-03T01:24:52.789Z,99.90
2024-03-03T01:26:54.754Z,99.90
2024-03-03T01:28:56.444Z,99.90
2024-03-03T01:30:58.194Z,99.90
2024-03-03T01:33:00.070Z,99.90
2024-03-03T01:35:01.718Z,99.90
2024-03-03T01:37:04.338Z,99.90
2024-03-03T01:39:06.640Z,99.90
2024-03-03T01:41:08.357Z,99.90
2024-03-03T01:43:10.007Z,99.90
2024-03-03T01:45:25.185Z,99.90
2024-03-03T01:47:27.591Z,99.90
2024-03-03T01:49:34.842Z,99.90
2024-03-03T01:51:39.027Z,99.90
2024-03-03T01:53:42.577Z,99.90
2024-03-03T01:55:45.521Z,99.90
2024-03-03T01:57:47.931Z,99.90
2024-03-03T01:59:52.277Z,99.90
2024-03-03T02:01:56.667Z,99.90
2024-03-03T02:03:58.813Z,99.90
2024-03-03T02:06:01.111Z,99.90
2024-03-03T02:08:04.732Z,99.90
2024-03-03T02:10:09.892Z,99.90
2024-03-03T02:12:11.833Z,99.90
2024-03-03T02:14:13.639Z,99.90
2024-03-03T02:16:15.395Z,99.90
2024-03-03T02:18:17.114Z,99.90
2024-03-03T02:20:18.916Z,99.90
2024-03-03T02:22:20.630Z,99.90
2024-03-03T02:24:22.348Z,99.90
2024-03-03T02:26:26.589Z,99.90
2024-03-03T02:28:28.927Z,99.90
2024-03-03T02:30:30.568Z,99.90
2024-03-03T02:32:32.282Z,99.90
2024-03-03T02:34:34.200Z,99.90
2024-03-03T02:36:35.895Z,99.90
2024-03-03T02:38:38.049Z,99.90
2024-03-03T02:40:40.161Z,99.90
2024-03-03T02:42:41.897Z,99.90
2024-03-03T02:44:43.571Z,99.90
2024-03-03T02:46:45.261Z,99.90
2024-03-03T02:48:46.978Z,99.90
2024-03-03T02:50:48.663Z,99.90
2024-03-03T02:52:50.511Z,99.90
2024-03-03T02:54:52.187Z,99.90
2024-03-03T02:56:54.037Z,99.90
2024-03-03T02:58:55.691Z,99.90
2024-03-03T03:00:57.820Z,99.90
2024-03-03T03:02:59.650Z,99.90
2024-03-03T03:05:01.441Z,99.90
2024-03-03T03:07:03.265Z,99.90
2024-03-03T03:09:05.521Z,99.90
2024-03-03T03:11:07.420Z,99.90
2024-03-03T03:13:09.340Z,99.90
2024-03-03T03:15:11.777Z,99.90
2024-03-03T03:17:13.780Z,99.90
2024-03-03T03:19:15.498Z,99.90
2024-03-03T03:21:17.335Z,99.90
2024-03-03T03:23:19.034Z,99.90
2024-03-03T03:25:20.707Z,99.90
2024-03-03T03:27:22.407Z,99.90
2024-03-03T03:29:24.154Z,99.90
2024-03-03T03:31:25.927Z,99.90
2024-03-03T03:33:27.672Z,99.90
2024-03-03T03:35:29.652Z,99.90
2024-03-03T03:37:31.394Z,99.90
2024-03-03T03:39:33.069Z,99.90
2024-03-03T03:41:34.706Z,99.90
2024-03-03T03:43:36.358Z,99.90
2024-03-03T03:45:38.013Z,99.90
2024-03-03T03:47:39.736Z,99.90
2024-03-03T03:49:41.461Z,99.90
2024-03-03T03:51:43.448Z,99.90
2024-03-03T03:53:45.381Z,99.90
2024-03-03T03:55:47.026Z,99.90
2024-03-03T03:57:48.730Z,99.90
2024-03-03T03:59:50.606Z,99.90
2024-03-03T04:01:53.370Z,99.90
2024-03-03T04:03:56.419Z,99.90
2024-03-03T04:05:58.132Z,99.90
2024-03-03T04:07:59.854Z,99.90
2024-03-03T04:10:01.555Z,99.90
2024-03-03T04:12:04.570Z,99.90
2024-03-03T04:14:06.673Z,99.90
2024-03-03T04:16:08.587Z,99.90
2024-03-03T04:18:10.338Z,99.90
2024-03-03T04:20:12.467Z,99.90
2024-03-03T04:22:14.136Z,99.90
2024-03-03T04:24:15.858Z,99.90
2024-03-03T04:26:17.495Z,99.90
2024-03-03T04:28:19.204Z,99.90
2024-03-03T04:30:21.013Z,99.90
2024-03-03T04:32:22.808Z,99.90
2024-03-03T04:34:27.492Z,99.90
2024-03-03T04:36:29.307Z,99.90
2024-03-03T04:38:31.013Z,99.90
2024-03-03T04:40:33.112Z,99.90
2024-03-03T04:42:35.025Z,99.90
2024-03-03T04:44:36.837Z,99.90
2024-03-03T04:46:38.578Z,99.90
2024-03-03T04:48:40.768Z,99.90
2024-03-03T04:50:42.833Z,99.90
2024-03-03T04:52:44.493Z,99.90
2024-03-03T04:54:46.222Z,99.90
2024-03-03T04:56:47.921Z,99.90
2024-03-03T04:58:49.595Z,99.90
2024-03-03T05:00:51.389Z,99.90
2024-03-03T05:02:53.915Z,99.90
2024-03-03T05:04:55.580Z,99.90
2024-03-03T05:06:57.277Z,99.90
2024-03-03T05:08:58.955Z,99.90
2024-03-03T05:11:00.693Z,99.90
2024-03-03T05:13:03.569Z,99.90
2024-03-03T05:15:05.891Z,99.90
2024-03-03T05:17:07.618Z,99.90
2024-03-03T05:19:12.400Z,99.90
2024-03-03T05:21:14.703Z,99.90
2024-03-03T05:23:16.379Z,99.90
2024-03-03T05:25:18.139Z,99.90
2024-03-03T05:27:19.851Z,99.90
2024-03-03T05:29:21.501Z,99.90
2024-03-03T05:31:23.670Z,99.90
2024-03-03T05:33:25.603Z,99.90
2024-03-03T05:35:27.314Z,99.90
2024-03-03T05:37:29.066Z,99.90
2024-03-03T05:39:30.840Z,99.90
2024-03-03T05:41:32.526Z,99.90
2024-03-03T05:43:34.202Z,99.90
2024-03-03T05:45:35.858Z,99.90
2024-03-03T05:47:37.570Z,99.90
2024-03-03T05:49:39.393Z,99.90
2024-03-03T05:51:41.180Z,99.90
2024-03-03T05:53:42.900Z,99.90
2024-03-03T05:55:44.588Z,99.90
2024-03-03T05:57:48.064Z,99.90
2024-03-03T05:59:50.061Z,99.90
2024-03-03T06:01:53.644Z,99.90
2024-03-03T06:03:55.454Z,99.90
2024-03-03T06:05:57.143Z,99.90
2024-03-03T06:07:58.844Z,99.90
2024-03-03T06:10:00.904Z,99.90
2024-03-03T06:12:04.014Z,99.90
2024-03-03T06:14:11.745Z,99.90
2024-03-03T06:16:13.617Z,99.90
2024-03-03T06:18:15.816Z,99.90
2024-03-03T06:20:17.473Z,99.90
2024-03-03T06:22:19.541Z,99.90
2024-03-03T06:24:21.337Z,99.90
2024-03-03T06:26:26.051Z,99.90
2024-03-03T06:28:27.820Z,99.90
2024-03-03T06:30:29.787Z,99.90
2024-03-03T06:32:31.719Z,99.90
2024-03-03T06:34:33.528Z,99.90
2024-03-03T06:36:36.683Z,99.90
2024-03-03T06:38:38.488Z,99.90
2024-03-03T06:40:40.273Z,99.90
2024-03-03T06:42:42.138Z,99.90
2024-03-03T06:44:43.947Z,99.90
2024-03-03T06:46:47.041Z,99.90
2024-03-03T06:48:49.355Z,99.90
2024-03-03T06:50:51.068Z,99.90
2024-03-03T06:52:52.824Z,99.90
2024-03-03T06:54:57.202Z,99.90
2024-03-03T06:56:58.882Z,99.90
2024-03-03T06:59:01.225Z,99.90
2024-03-03T07:01:03.250Z,99.90
2024-03-03T07:03:13.998Z,99.90
2024-03-03T07:05:15.751Z,99.90
2024-03-03T07:07:17.456Z,99.90
2024-03-03T07:09:25.569Z,99.90
2024-03-03T07:11:27.556Z,99.90
2024-03-03T07:13:29.358Z,99.90
2024-03-03T07:15:31.094Z,99.90
2024-03-03T07:17:33.459Z,99.90
2024-03-03T07:19:35.190Z,99.90
2024-03-03T07:21:37.072Z,99.90
2024-03-03T07:23:40.259Z,99.90
2024-03-03T07:25:42.018Z,99.90
2024-03-03T07:27:43.727Z,99.90
2024-03-03T07:29:47.847Z,99.90
2024-03-03T07:31:49.536Z,99.90
2024-03-03T07:33:52.272Z,99.90
2024-03-03T07:35:54.009Z,99.90
2024-03-03T07:37:55.843Z,99.90
2024-03-03T07:39:57.522Z,99.90
2024-03-03T07:42:02.772Z,99.90
2024-03-03T07:44:07.778Z,99.90
2024-03-03T07:46:09.584Z,99.90
2024-03-03T07:48:11.407Z,99.90
2024-03-03T07:50:13.209Z,99.90
2024-03-03T07:52:15.156Z,99.90
2024-03-03T07:54:16.937Z,99.90
2024-03-03T07:56:18.670Z,99.90
2024-03-03T07:58:20.669Z,99.90
2024-03-03T08:00:22.600Z,99.90
2024-03-03T08:02:24.295Z,99.90
2024-03-03T08:04:26.110Z,99.90
2024-03-03T08:06:28.367Z,99.90
2024-03-03T08:08:30.123Z,99.90
2024-03-03T08:10:32.086Z,99.90
2024-03-03T08:12:33.798Z,99.90
2024-03-03T08:14:35.517Z,99.90
2024-03-03T08:16:37.378Z,99.90
2024-03-03T08:18:39.007Z,99.90
2024-03-03T08:20:40.797Z,99.90
2024-03-03T08:22:43.136Z,99.70
2024-03-03T08:24:44.849Z,99.00
2024-03-03T08:26:49.566Z,97.90
2024-03-03T08:28:51.401Z,97.20
2024-03-03T08:30:53.067Z,95.80
2024-03-03T08:32:54.768Z,95.10
2024-03-03T08:34:56.512Z,94.70
2024-03-03T08:36:58.259Z,95.50
2024-03-03T08:39:00.085Z,96.00
2024-03-03T08:41:02.439Z,94.50
2024-03-03T08:43:04.363Z,93.70
2024-03-03T08:45:07.659Z,93.40
2024-03-03T08:47:09.359Z,93.20
2024-03-03T08:49:11.534Z,94.20
2024-03-03T08:51:14.710Z,92.00
2024-03-03T08:53:16.424Z,93.30
2024-03-03T08:55:18.193Z,92.50
2024-03-03T08:57:20.210Z,91.60
2024-03-03T08:59:21.889Z,90.60
2024-03-03T09:01:23.669Z,90.20
2024-03-03T09:03:25.426Z,90.10
2024-03-03T09:05:27.814Z,90.10
2024-03-03T09:07:29.624Z,87.70
2024-03-03T09:09:31.353Z,84.40
2024-03-03T09:11:35.776Z,85.20
2024-03-03T09:13:37.444Z,86.60
2024-03-03T09:15:39.113Z,89.40
2024-03-03T09:17:40.883Z,88.60
2024-03-03T09:19:42.739Z,89.70
2024-03-03T09:21:47.972Z,89.40
2024-03-03T09:23:49.932Z,88.20
2024-03-03T09:25:54.524Z,89.40
2024-03-03T09:27:56.250Z,90.30
2024-03-03T09:29:58.012Z,89.90
2024-03-03T09:32:00.110Z,86.50
2024-03-03T09:34:01.871Z,89.20
2024-03-03T09:36:03.800Z,87.40
2024-03-03T09:38:06.198Z,85.40
2024-03-03T09:40:15.878Z,83.70
2024-03-03T09:42:17.625Z,82.30
2024-03-03T09:44:22.479Z,75.60
2024-03-03T09:46:25.313Z,72.60
2024-03-03T09:48:27.574Z,70.90
2024-03-03T09:50:29.707Z,68.70
2024-03-03T09:52:32.887Z,69.40
2024-03-03T09:54:35.049Z,68.60
2024-03-03T09:56:39.270Z,70.80
2024-03-03T09:58:41.194Z,68.80
2024-03-03T10:00:43.239Z,66.50
2024-03-03T10:02:45.520Z,69.30
2024-03-03T10:04:49.455Z,66.90
2024-03-03T10:06:57.295Z,67.60
2024-03-03T10:09:02.681Z,67.70
2024-03-03T10:11:08.944Z,67.10
2024-03-03T10:13:12.629Z,65.30
2024-03-03T10:15:15.822Z,64.50
2024-03-03T10:17:17.637Z,65.60
2024-03-03T10:19:20.018Z,67.00
2024-03-03T10:21:21.890Z,66.70
2024-03-03T10:23:24.982Z,64.50
2024-03-03T10:25:27.203Z,65.60
2024-03-03T10:27:28.876Z,66.10
2024-03-03T10:29:33.157Z,65.40
2024-03-03T10:31:36.249Z,67.80
2024-03-03T10:33:37.906Z,66.30
2024-03-03T10:35:39.594Z,70.60
2024-03-03T10:38:02.900Z,66.80
2024-03-03T10:40:11.904Z,67.40
2024-03-03T10:42:13.619Z,68.20
2024-03-03T10:44:15.242Z,68.10
2024-03-03T10:46:19.093Z,63.90
2024-03-03T10:48:20.796Z,65.40
2024-03-03T10:50:24.305Z,66.40
2024-03-03T10:52:26.818Z,66.50
2024-03-03T10:54:29.867Z,67.90
2024-03-03T10:56:33.650Z,67.20
2024-03-03T10:58:36.750Z,68.10
2024-03-03T11:00:39.635Z,70.10
2024-03-03T11:02:45.486Z,70.20
2024-03-03T11:04:47.763Z,71.00
2024-03-03T11:06:50.122Z,69.10
2024-03-03T11:08:53.569Z,71.00
2024-03-03T11:11:00.958Z,70.80
2024-03-03T11:13:06.042Z,71.90
2024-03-03T11:15:13.069Z,69.80
2024-03-03T11:17:22.898Z,69.70
2024-03-03T11:19:32.013Z,69.70
2024-03-03T11:21:38.732Z,68.20
2024-03-03T11:23:53.143Z,71.00
2024-03-03T11:26:03.943Z,69.70
2024-03-03T11:28:06.509Z,69.70
2024-03-03T11:30:11.447Z,71.40
2024-03-03T11:32:14.825Z,68.80
2024-03-03T11:34:16.960Z,69.70
2024-03-03T11:36:19.731Z,69.20
2024-03-03T11:38:22.320Z,67.90
2024-03-03T11:40:23.966Z,69.00
2024-03-03T11:42:34.601Z,71.60
2024-03-03T11:44:36.647Z,69.60
2024-03-03T11:46:51.051Z,68.90
2024-03-03T11:48:58.660Z,70.80
2024-03-03T11:51:25.955Z,70.50
2024-03-03T11:53:27.641Z,68.50
2024-03-03T11:55:34.169Z,70.00
2024-03-03T11:57:38.581Z,71.50
2024-03-03T11:59:46.671Z,70.80
2024-03-03T12:01:49.091Z,72.00
2024-03-03T12:03:51.253Z,71.30
2024-03-03T12:05:53.193Z,71.20
2024-03-03T12:07:56.272Z,67.10
2024-03-03T12:09:58.061Z,67.20
2024-03-03T12:12:00.627Z,68.40
2024-03-03T12:14:02.358Z,69.80
2024-03-03T12:16:04.398Z,68.80
2024-03-03T12:18:11.276Z,67.80
2024-03-03T12:20:13.552Z,68.00
2024-03-03T12:22:15.381Z,66.60
2024-03-03T12:24:17.090Z,66.80
2024-03-03T12:26:19.575Z,62.30
2024-03-03T12:28:25.306Z,62.50
2024-03-03T12:30:33.520Z,61.50
2024-03-03T12:32:35.608Z,62.80
2024-03-03T12:34:37.531Z,62.60
2024-03-03T12:36:39.631Z,60.70
2024-03-03T12:38:41.739Z,56.80
2024-03-03T12:40:43.838Z,55.80
2024-03-03T12:42:49.990Z,53.90
2024-03-03T12:44:54.582Z,52.70
2024-03-03T12:46:57.994Z,55.50
2024-03-03T12:48:59.988Z,55.90
2024-03-03T12:51:01.889Z,56.90
2024-03-03T12:53:04.081Z,57.40
2024-03-03T12:55:06.974Z,53.90
2024-03-03T12:57:12.596Z,54.40
2024-03-03T12:59:14.707Z,52.40
2024-03-03T13:01:17.384Z,49.30
2024-03-03T13:03:19.122Z,52.90
2024-03-03T13:05:22.069Z,49.90
2024-03-03T13:07:24.257Z,49.20
2024-03-03T13:09:31.779Z,46.60
2024-03-03T13:11:34.028Z,45.20
2024-03-03T13:13:35.751Z,42.80
2024-03-03T13:15:44.227Z,42.70
2024-03-03T13:18:07.654Z,40.60
2024-03-03T13:20:15.815Z,42.70
2024-03-03T13:22:19.453Z,41.00
2024-03-03T13:24:21.366Z,39.80
2024-03-03T13:26:23.073Z,37.10
2024-03-03T13:28:24.905Z,37.30
2024-03-03T13:30:26.694Z,37.00
2024-03-03T13:32:28.417Z,36.60
2024-03-03T13:34:30.256Z,33.60
2024-03-03T13:36:32.077Z,35.70
2024-03-03T13:38:34.234Z,37.30
2024-03-03T13:40:36.116Z,36.80
2024-03-03T13:42:37.793Z,34.80
2024-03-03T13:44:43.769Z,36.10
2024-03-03T13:46:45.865Z,35.80
2024-03-03T13:48:47.621Z,35.40
2024-03-03T13:50:49.986Z,34.90
2024-03-03T13:52:54.189Z,35.10
2024-03-03T13:54:56.585Z,35.30
2024-03-03T13:56:58.366Z,34.90
2024-03-03T13:59:00.047Z,37.60
2024-03-03T14:01:02.404Z,36.00
2024-03-03T14:03:06.854Z,37.20
2024-03-03T14:05:09.245Z,36.30
2024-03-03T14:07:11.091Z,36.90
2024-03-03T14:09:12.873Z,38.10
2024-03-03T14:11:14.606Z,38.30
2024-03-03T14:13:16.350Z,37.70
2024-03-03T14:15:18.041Z,37.00
2024-03-03T14:17:19.863Z,36.90
2024-03-03T14:19:21.601Z,37.50
2024-03-03T14:21:23.482Z,39.20
2024-03-03T14:23:25.287Z,38.00
2024-03-03T14:25:28.017Z,39.40
2024-03-03T14:27:30.600Z,40.80
2024-03-03T14:29:32.276Z,41.00
2024-03-03T14:31:34.109Z,41.30
2024-03-03T14:33:35.803Z,41.50
2024-03-03T14:35:37.963Z,42.20
2024-03-03T14:37:40.034Z,42.30
2024-03-03T14:39:42.619Z,42.20
2024-03-03T14:41:44.756Z,41.40
2024-03-03T14:43:46.604Z,41.90
2024-03-03T14:45:48.610Z,41.10
2024-03-03T14:47:50.641Z,42.10
2024-03-03T14:49:52.716Z,40.50
2024-03-03T14:51:54.517Z,40.00
2024-03-03T14:53:56.245Z,39.10
2024-03-03T14:56:00.974Z,39.20
2024-03-03T14:58:05.094Z,38.60
2024-03-03T15:00:07.491Z,38.80
2024-03-03T15:02:09.334Z,38.80
2024-03-03T15:04:11.236Z,39.80
2024-03-03T15:06:13.282Z,40.70
2024-03-03T15:08:15.131Z,40.00
2024-03-03T15:10:17.349Z,40.60
2024-03-03T15:12:19.130Z,40.80
2024-03-03T15:14:21.073Z,41.90
2024-03-03T15:16:22.877Z,42.20
2024-03-03T15:18:25.064Z,42.30
2024-03-03T15:20:27.483Z,43.00
2024-03-03T15:22:30.223Z,41.70
2024-03-03T15:24:32.525Z,42.50
2024-03-03T15:26:34.329Z,42.10
2024-03-03T15:28:36.105Z,41.70
2024-03-03T15:30:39.140Z,41.50
2024-03-03T15:32:42.580Z,40.40
2024-03-03T15:34:44.312Z,41.20
2024-03-03T15:36:46.232Z,40.00
2024-03-03T15:38:48.360Z,40.60
2024-03-03T15:40:50.072Z,40.50
2024-03-03T15:42:52.905Z,40.40
2024-03-03T15:44:54.597Z,42.00
2024-03-03T15:46:56.605Z,42.20
2024-03-03T15:48:59.217Z,42.60
2024-03-03T15:51:00.888Z,43.40
2024-03-03T15:53:02.555Z,42.60
2024-03-03T15:55:06.697Z,44.20
2024-03-03T15:57:08.610Z,45.00
2024-03-03T15:59:10.331Z,44.90
2024-03-03T16:01:12.180Z,45.80
2024-03-03T16:03:14.456Z,45.30
2024-03-03T16:05:17.929Z,46.20
2024-03-03T16:07:20.900Z,47.30
2024-03-03T16:09:22.649Z,46.20
2024-03-03T16:11:24.320Z,46.10
2024-03-03T16:13:26.244Z,46.40
2024-03-03T16:15:28.808Z,46.40
2024-03-03T16:17:30.591Z,45.50
2024-03-03T16:19:32.447Z,47.90
2024-03-03T16:21:34.429Z,48.00
2024-03-03T16:23:36.095Z,48.70
2024-03-03T16:25:38.233Z,49.50
2024-03-03T16:27:40.155Z,50.50
2024-03-03T16:29:41.824Z,51.80
2024-03-03T16:31:43.692Z,52.30
2024-03-03T16:33:45.745Z,51.80
2024-03-03T16:35:47.855Z,52.40
2024-03-03T16:37:50.632Z,52.70
2024-03-03T16:39:52.484Z,53.30
2024-03-03T16:41:54.279Z,54.20
2024-03-03T16:43:56.089Z,54.70
2024-03-03T16:45:59.370Z,56.20
2024-03-03T16:48:01.684Z,55.90
2024-03-03T16:50:05.123Z,56.50
2024-03-03T16:52:07.157Z,56.90
2024-03-03T16:54:08.857Z,58.20
2024-03-03T16:56:12.539Z,58.00
2024-03-03T16:58:14.360Z,58.60
2024-03-03T17:00:16.591Z,59.20
2024-03-03T17:02:18.277Z,59.10
2024-03-03T17:04:20.138Z,60.00
2024-03-03T17:06:21.975Z,60.30
2024-03-03T17:08:23.659Z,61.40
2024-03-03T17:10:25.454Z,61.80
2024-03-03T17:12:27.163Z,62.30
2024-03-03T17:14:28.805Z,63.10
2024-03-03T17:16:30.712Z,63.70
2024-03-03T17:18:32.808Z,64.40
2024-03-03T17:20:34.515Z,65.20
2024-03-03T17:22:37.306Z,66.10
2024-03-03T17:24:39.060Z,67.20
2024-03-03T17:26:41.451Z,68.80
2024-03-03T17:28:43.134Z,70.80
2024-03-03T17:30:48.549Z,72.20
2024-03-03T17:32:52.111Z,73.70
2024-03-03T17:34:54.037Z,75.20
2024-03-03T17:36:55.858Z,77.10
2024-03-03T17:38:57.514Z,80.30
2024-03-03T17:40:59.331Z,83.80
2024-03-03T17:43:01.162Z,87.00
2024-03-03T17:45:05.863Z,90.40
2024-03-03T17:47:07.575Z,91.80
2024-03-03T17:49:09.411Z,93.20
2024-03-03T17:51:11.212Z,94.80
2024-03-03T17:53:12.942Z,96.10
2024-03-03T17:55:15.456Z,97.40
2024-03-03T17:57:17.115Z,99.00
2024-03-03T17:59:18.787Z,99.90
2024-03-03T18:01:20.531Z,99.90
2024-03-03T18:03:22.514Z,99.90
2024-03-03T18:05:24.179Z,99.90
2024-03-03T18:07:25.847Z,99.90
2024-03-03T18:09:27.549Z,99.90
2024-03-03T18:11:29.341Z,99.90
2024-03-03T18:13:31.115Z,99.90
2024-03-03T18:15:32.800Z,99.90
2024-03-03T18:17:35.256Z,99.90
2024-03-03T18:19:37.027Z,99.90
2024-03-03T18:21:38.759Z,99.90
2024-03-03T18:23:40.646Z,99.90
2024-03-03T18:25:42.620Z,99.90
2024-03-03T18:27:44.448Z,99.90
2024-03-03T18:29:46.370Z,99.90
2024-03-03T18:31:48.137Z,99.90
2024-03-03T18:33:49.827Z,99.90
2024-03-03T18:35:51.545Z,99.90
2024-03-03T18:37:53.668Z,99.90
2024-03-03T18:39:56.893Z,99.90
2024-03-03T18:41:58.862Z,99.90
2024-03-03T18:44:00.731Z,99.90
2024-03-03T18:46:02.786Z,99.90
2024-03-03T18:48:04.967Z,99.90
2024-03-03T18:50:07.256Z,99.90
2024-03-03T18:52:09.451Z,99.90
2024-03-03T18:54:11.142Z,99.90
2024-03-03T18:56:12.798Z,99.90
2024-03-03T18:58:14.691Z,99.90
2024-03-03T19:00:17.487Z,99.90
2024-03-03T19:02:23.012Z,99.90
2024-03-03T19:04:28.378Z,99.90
2024-03-03T19:06:30.371Z,99.90
2024-03-03T19:08:34.852Z,99.90
2024-03-03T19:10:36.831Z,99.90
2024-03-03T19:12:38.730Z,99.90
2024-03-03T19:14:40.496Z,99.90
2024-03-03T19:16:42.228Z,99.90
2024-03-03T19:18:45.927Z,99.90
2024-03-03T19:20:47.580Z,99.90
2024-03-03T19:22:50.028Z,99.90
2024-03-03T19:24:51.759Z,99.90
2024-03-03T19:26:55.241Z,99.90
2024-03-03T19:28:57.021Z,99.90
2024-03-03T19:30:59.188Z,99.90
2024-03-03T19:33:01.642Z,99.90
2024-03-03T19:35:05.120Z,99.90
2024-03-03T19:37:06.925Z,99.90
2024-03-03T19:39:09.527Z,99.90
2024-03-03T19:41:11.481Z,99.90
2024-03-03T19:43:13.193Z,99.90
2024-03-03T19:45:14.894Z,99.90
2024-03-03T19:47:16.574Z,99.90
2024-03-03T19:49:18.816Z,99.90
2024-03-03T19:51:20.984Z,99.90
2024-03-03T19:53:22.686Z,99.90
2024-03-03T19:55:24.392Z,99.90
2024-03-03T19:57:29.489Z,99.90
2024-03-03T19:59:33.999Z,99.90
2024-03-03T20:01:35.703Z,99.90
2024-03-03T20:03:37.389Z,99.90
2024-03-03T20:05:39.147Z,99.90
2024-03-03T20:07:40.839Z,99.90
2024-03-03T20:09:44.806Z,99.90
2024-03-03T20:11:46.680Z,99.90
2024-03-03T20:13:48.424Z,99.90
2024-03-03T20:15:52.224Z,99.90
2024-03-03T20:17:53.998Z,99.90
2024-03-03T20:19:57.300Z,99.90
2024-03-03T20:21:59.026Z,99.90
2024-03-03T20:24:01.550Z,99.90
2024-03-03T20:26:03.749Z,99.90
2024-03-03T20:28:06.724Z,99.90
2024-03-03T20:30:09.268Z,99.90
2024-03-03T20:32:11.098Z,99.90
2024-03-03T20:34:12.842Z,99.90
2024-03-03T20:36:14.879Z,99.90
2024-03-03T20:38:17.586Z,99.90
2024-03-03T20:40:20.834Z,99.90
2024-03-03T20:42:22.581Z,99.90
2024-03-03T20:44:24.416Z,99.90
2024-03-03T20:46:26.205Z,99.90
2024-03-03T20:48:27.933Z,99.90
2024-03-03T20:50:29.589Z,99.90
2024-03-03T20:52:31.291Z,99.90
2024-03-03T20:54:33.008Z,99.90
2024-03-03T20:56:35.665Z,99.90
2024-03-03T20:58:37.409Z,99.90
2024-03-03T21:00:39.253Z,99.90
2024-03-03T21:02:41.059Z,99.90
2024-03-03T21:04:46.623Z,99.90
2024-03-03T21:06:48.336Z,99.90
2024-03-03T21:08:50.067Z,99.90
2024-03-03T21:10:52.152Z,99.90
2024-03-03T21:12:54.684Z,99.90
2024-03-03T21:14:56.393Z,99.90
2024-03-03T21:16:58.680Z,99.90
2024-03-03T21:19:00.808Z,99.90
2024-03-03T21:21:02.602Z,99.90
2024-03-03T21:23:04.353Z,99.90
2024-03-03T21:25:07.491Z,99.90
2024-03-03T21:27:09.234Z,99.90
2024-03-03T21:29:10.982Z,99.90
2024-03-03T21:31:12.687Z,99.90
2024-03-03T21:33:15.198Z,99.90
2024-03-03T21:35:17.257Z,99.90
2024-03-03T21:37:19.047Z,99.90
2024-03-03T21:39:20.843Z,99.90
2024-03-03T21:41:22.706Z,99.90
2024-03-03T21:43:24.453Z,99.90
2024-03-03T21:45:26.595Z,99.90
2024-03-03T21:47:28.331Z,99.90
2024-03-03T21:49:30.075Z,99.90
2024-03-03T21:51:32.904Z,99.90
2024-03-03T21:53:35.156Z,99.90
2024-03-03T21:55:37.033Z,99.90
2024-03-03T21:57:38.828Z,99.90
2024-03-03T21:59:40.604Z,99.90
2024-03-03T22:01:52.206Z,99.90
2024-03-03T22:04:01.909Z,99.90
2024-03-03T22:06:03.946Z,99.90
2024-03-03T22:08:08.378Z,99.90
2024-03-03T22:10:10.790Z,99.90
2024-03-03T22:12:12.502Z,99.90
2024-03-03T22:14:14.557Z,99.90
2024-03-03T22:16:16.327Z,99.90
2024-03-03T22:18:18.918Z,99.90
2024-03-03T22:20:20.630Z,99.90
2024-03-03T22:22:22.401Z,99.90
2024-03-03T22:24:24.140Z,99.90
2024-03-03T22:26:25.842Z,99.90
2024-03-03T22:28:28.712Z,99.90
2024-03-03T22:30:30.563Z,99.90
2024-03-03T22:32:34.391Z,99.90
2024-03-03T22:34:37.145Z,99.90
2024-03-03T22:36:38.866Z,99.90
2024-03-03T22:38:40.532Z,99.90
2024-03-03T22:40:42.450Z,99.90
2024-03-03T22:42:44.734Z,99.90
2024-03-03T22:44:46.481Z,99.90
2024-03-03T22:46:48.140Z,99.90
2024-03-03T22:48:49.807Z,99.90
2024-03-03T22:50:51.509Z,99.90
2024-03-03T22:52:53.920Z,99.90
2024-03-03T22:54:55.657Z,99.90
2024-03-03T22:57:00.090Z,99.90
2024-03-03T22:59:04.322Z,99.90
2024-03-03T23:01:06.117Z,99.90
2024-03-03T23:03:09.121Z,99.90
2024-03-03T23:05:10.822Z,99.90
2024-03-03T23:07:12.523Z,99.90
2024-03-03T23:09:14.262Z,99.90
2024-03-03T23:11:16.461Z,99.90
2024-03-03T23:13:18.341Z,99.90
2024-03-03T23:15:20.340Z,99.90
2024-03-03T23:17:22.063Z,99.90
2024-03-03T23:19:23.764Z,99.90
2024-03-03T23:21:25.471Z,99.90
2024-03-03T23:23:27.214Z,99.90
2024-03-03T23:25:29.122Z,99.90
2024-03-03T23:27:30.915Z,99.90
2024-03-03T23:29:32.669Z,99.90
2024-03-03T23:31:34.423Z,99.90
2024-03-03T23:33:36.230Z,99.90
2024-03-03T23:35:38.111Z,99.90
2024-03-03T23:37:39.891Z,99.90
2024-03-03T23:39:41.802Z,99.90
2024-03-03T23:41:43.512Z,99.90
2024-03-03T23:43:45.318Z,99.90
2024-03-03T23:45:47.027Z,99.90
2024-03-03T23:47:48.756Z,99.90
2024-03-03T23:49:50.752Z,99.90
2024-03-03T23:51:52.546Z,99.90
2024-03-03T23:53:54.457Z,99.90
2024-03-03T23:55:56.188Z,99.90
2024-03-03T23:57:58.070Z,99.90
